Escondido, CA (92027)

6:28 AM PDT on October 25, 2014 (GMT -0700)
Moody Dr | Change Station
CLOSE
Current Station
Personal Weather Station
Location: Escondido, CA
Elevation: 771 ft
Nearby Weather Stations

Elev 771 ft 33.13 °N, 117.03 °W | Updated 9 seconds ago

Mostly Cloudy
Mostly Cloudy
59.7 °F
Feels Like 59.7 °F
N
0.0
Wind Variable Wind from NW
Gusts 0.0 mph

Today
High -- | Low -- °F
--% Chance of Precip.
Yesterday
High -- | Low -- °F
Precip. -- in
7:00 AM 6:03 PM
Waxing Crescent, 3% visible
Pressure 29.99 in
Visibility 10.0 miles
Clouds Mostly Cloudy 8500 ft
Dew Point 48 °F
Humidity 64%
Rainfall 0.00 in
Snow Depth Not available.
UV 0 out of 12
Pollen 3.90 out of 12
Ozone Good
PM2.5 Moderate
Flu Activity Sporadic
METAR KRNM 251253Z AUTO 00000KT 10SM BKN085 13/02 A3002 RMK AO2 SLP155 T01280022 TSNO

More Conditions Fewer Conditions

Pressure 29.99 in
Visibility 10.0 miles
Clouds Mostly Cloudy 8500 ft
Dew Point 48 °F
Humidity 64%
Rainfall 0.00 in
Snow Depth Not available.
UV 0 out of 12
Pollen 3.90 out of 12
Ozone Good
PM2.5 Moderate
Flu Activity Sporadic
METAR KRNM 251253Z AUTO 00000KT 10SM BKN085 13/02 A3002 RMK AO2 SLP155 T01280022 TSNO

More Conditions Fewer Conditions

10-Day Weather Forecast

Almanac

Astronomy

Oct. 25, 2014 Rise Set
Actual Time 7:00 AM PDT 6:03 PM PDT
Civil Twilight 6:35 AM PDT 6:28 PM PDT
Nautical Twilight 6:06 AM PDT 6:57 PM PDT
Astronomical Twilight 5:37 AM PDT 7:26 PM PDT
Moon 8:40 AM PDT 7:34 PM PDT
Length of Visible Light 11h 53m
Length of Day
11h 02m
Tomorrow will be 1m 52s shorter.
Waxing Crescent, 3% of the Moon is Illuminated
Today
Waxing Crescent
Oct 30
First Quarter
Nov 6
Full
Nov 14
Last Quarter
Nov 22
New

Today's Extremes

State Highs State Lows

Community

WunderPhotos

Upload Photos

1,764,829 photos uploaded!

Nearby

Air Quality

  Air Quality AQ Index Pollutant
Yesterday Moderate
PM2.5
Yesterday Good
OZONE
Current Moderate
PM2.5
Current Good
OZONE
Saturday Moderate
PM2.5
Saturday Good
OZONE
Sunday Good
PM2.5
Sunday Good
OZONE
Monday Good
PM2.5
Monday Good
OZONE

Snow Depth

Station Depth Elevation
Virginia Lakes Ridge 0 in 9200 ft
Leavitt Lake 1 in 9400 ft
Leavitt Meadows 1 in 7200 ft
Sonora Pass 0 in 8800 ft
Summit Meadow 1 in 9122 ft

Earthquake Activity

City Distance Mag. Time & Date
Running Springs, California 79 miles 3.1 4:07 AM PDT
2014-10-25
Maneadero, Mexico 125 miles 2.5 7:44 AM PDT
2014-10-24
San Felipe, Mexico 146 miles 3.0 11:00 PM PDT
2014-10-23
Brea, California 73 miles 2.9 3:35 PM PDT
2014-10-23
Minimum magnitude displayed is 2.5.

Coastal Water Temperatures

Place Temperature
La Jolla, CA 70.0 °F
San Diego, CA 73.9 °F

Nearby Weather Stations